createdAt,value
2023-02-22T00:01:08.473Z,8.85
2023-02-22T00:03:36.694Z,8.84
2023-02-22T00:06:06.069Z,8.83
2023-02-22T00:08:35.769Z,8.82
2023-02-22T00:11:05.367Z,8.81
2023-02-22T00:13:33.457Z,8.81
2023-02-22T00:16:01.893Z,8.81
2023-02-22T00:18:30.200Z,8.82
2023-02-22T00:21:00.225Z,8.83
2023-02-22T00:23:29.841Z,8.83
2023-02-22T00:25:58.825Z,8.85
2023-02-22T00:28:27.202Z,8.88
2023-02-22T00:30:55.622Z,8.90
2023-02-22T00:33:23.661Z,8.93
2023-02-22T00:35:52.244Z,8.96
2023-02-22T00:38:20.209Z,8.97
2023-02-22T00:40:48.169Z,9.00
2023-02-22T00:43:16.660Z,9.04
2023-02-22T00:45:44.654Z,9.05
2023-02-22T00:48:13.415Z,9.06
2023-02-22T00:50:41.382Z,9.09
2023-02-22T00:53:10.881Z,9.12
2023-02-22T00:55:38.954Z,9.14
2023-02-22T00:58:07.030Z,9.15
2023-02-22T01:00:41.787Z,9.14
2023-02-22T01:03:10.855Z,9.11
2023-02-22T01:05:39.296Z,9.06
2023-02-22T01:08:08.439Z,9.02
2023-02-22T01:10:37.226Z,9.00
2023-02-22T01:13:09.291Z,8.96
2023-02-22T01:15:38.808Z,8.91
2023-02-22T01:18:06.856Z,8.86
2023-02-22T01:20:35.441Z,8.81
2023-02-22T01:23:06.838Z,8.78
2023-02-22T01:25:36.005Z,8.75
2023-02-22T01:28:05.200Z,8.75
2023-02-22T01:30:34.500Z,8.74
2023-02-22T01:33:04.031Z,8.74
2023-02-22T01:35:33.907Z,8.74
2023-02-22T01:38:02.289Z,8.74
2023-02-22T01:40:32.205Z,8.71
2023-02-22T01:43:01.762Z,8.70
2023-02-22T01:45:30.390Z,8.67
2023-02-22T01:48:06.268Z,8.66
2023-02-22T01:50:37.540Z,8.67
2023-02-22T01:53:08.230Z,8.66
2023-02-22T01:55:36.315Z,8.66
2023-02-22T01:58:05.193Z,8.65
2023-02-22T02:00:33.359Z,8.64
2023-02-22T02:03:03.138Z,8.64
2023-02-22T02:05:31.857Z,8.64
2023-02-22T02:08:03.678Z,8.62
2023-02-22T02:10:32.105Z,8.60
2023-02-22T02:13:00.099Z,8.59
2023-02-22T02:15:31.217Z,8.57
2023-02-22T02:18:01.132Z,8.57
2023-02-22T02:20:35.357Z,8.56
2023-02-22T02:23:06.432Z,8.55
2023-02-22T02:26:07.119Z,8.54
2023-02-22T02:28:37.856Z,8.54
2023-02-22T02:31:05.728Z,8.51
2023-02-22T02:33:35.028Z,8.49
2023-02-22T02:36:12.010Z,8.47
2023-02-22T02:38:44.628Z,8.47
2023-02-22T02:41:15.834Z,8.45
2023-02-22T02:44:02.135Z,8.44
2023-02-22T02:46:39.222Z,8.40
2023-02-22T02:49:11.384Z,8.39
2023-02-22T02:51:41.711Z,8.39
2023-02-22T02:54:11.310Z,8.39
2023-02-22T02:56:39.286Z,8.40
2023-02-22T02:59:26.506Z,8.41
2023-02-22T03:02:03.688Z,8.40
2023-02-22T03:04:49.027Z,8.40
2023-02-22T03:07:32.449Z,8.39
2023-02-22T03:10:09.518Z,8.39
2023-02-22T03:12:49.949Z,8.38
2023-02-22T03:15:36.545Z,8.35
2023-02-22T03:18:07.490Z,8.34
2023-02-22T03:20:38.322Z,8.32
2023-02-22T03:23:12.231Z,8.29
2023-02-22T03:25:43.491Z,8.25
2023-02-22T03:28:14.936Z,8.23
2023-02-22T03:30:46.954Z,8.19
2023-02-22T03:33:20.563Z,8.16
2023-02-22T03:35:51.231Z,8.13
2023-02-22T03:38:20.569Z,8.11
2023-02-22T03:40:51.372Z,8.09
2023-02-22T03:43:23.233Z,8.08
2023-02-22T03:45:53.361Z,8.07
2023-02-22T03:48:30.346Z,8.06
2023-02-22T03:51:03.018Z,8.06
2023-02-22T03:53:31.702Z,8.05
2023-02-22T03:56:00.870Z,8.04
2023-02-22T03:58:31.737Z,8.03
2023-02-22T04:01:00.119Z,8.03
2023-02-22T04:03:28.082Z,8.04
2023-02-22T04:05:56.465Z,8.03
2023-02-22T04:08:24.871Z,8.03
2023-02-22T04:10:53.827Z,8.03
2023-02-22T04:13:24.982Z,8.03
2023-02-22T04:15:54.744Z,8.02
2023-02-22T04:18:22.758Z,8.01
2023-02-22T04:20:51.953Z,8.01
2023-02-22T04:23:42.203Z,8.00
2023-02-22T04:26:10.226Z,8.00
2023-02-22T04:28:38.197Z,7.99
2023-02-22T04:31:11.076Z,7.98
2023-02-22T04:33:39.145Z,7.99
2023-02-22T04:36:07.829Z,7.99
2023-02-22T04:38:36.513Z,8.00
2023-02-22T04:41:04.483Z,8.01
2023-02-22T04:43:32.530Z,8.00
2023-02-22T04:46:13.984Z,7.99
2023-02-22T04:48:42.020Z,7.98
2023-02-22T04:51:09.932Z,7.98
2023-02-22T04:53:39.292Z,7.97
2023-02-22T04:56:07.567Z,7.97
2023-02-22T04:58:35.804Z,7.96
2023-02-22T05:01:04.218Z,7.96
2023-02-22T05:03:32.191Z,7.95
2023-02-22T05:06:00.154Z,7.96
2023-02-22T05:08:28.175Z,7.96
2023-02-22T05:10:56.254Z,7.95
2023-02-22T05:13:24.272Z,7.92
2023-02-22T05:15:52.217Z,7.89
2023-02-22T05:18:20.152Z,7.87
2023-02-22T05:20:48.178Z,7.84
2023-02-22T05:23:16.256Z,7.82
2023-02-22T05:25:44.682Z,7.77
2023-02-22T05:28:14.233Z,7.67
2023-02-22T05:30:42.685Z,7.58
2023-02-22T05:33:10.913Z,7.52
2023-02-22T05:35:38.859Z,7.48
2023-02-22T05:38:06.929Z,7.45
2023-02-22T05:40:35.209Z,7.43
2023-02-22T05:43:03.175Z,7.43
2023-02-22T05:45:31.151Z,7.42
2023-02-22T05:47:59.011Z,7.42
2023-02-22T05:50:27.093Z,7.42
2023-02-22T05:52:55.668Z,7.40
2023-02-22T05:55:24.391Z,7.40
2023-02-22T05:57:52.595Z,7.41
2023-02-22T06:00:28.365Z,7.41
2023-02-22T06:02:57.184Z,7.40
2023-02-22T06:05:26.283Z,7.40
2023-02-22T06:07:54.368Z,7.40
2023-02-22T06:10:22.408Z,7.39
2023-02-22T06:12:51.378Z,7.39
2023-02-22T06:15:20.297Z,7.39
2023-02-22T06:17:48.977Z,7.39
2023-02-22T06:20:18.282Z,7.41
2023-02-22T06:22:49.734Z,7.43
2023-02-22T06:25:19.032Z,7.46
2023-02-22T06:27:46.882Z,7.51
2023-02-22T06:30:15.798Z,7.58
2023-02-22T06:32:43.661Z,7.69
2023-02-22T06:35:12.034Z,7.83
2023-02-22T06:37:40.125Z,7.95
2023-02-22T06:40:08.380Z,8.07
2023-02-22T06:42:36.373Z,8.19
2023-02-22T06:45:04.629Z,8.28
2023-02-22T06:47:32.604Z,8.35
2023-02-22T06:50:01.184Z,8.44
2023-02-22T06:52:29.162Z,8.53
2023-02-22T06:54:57.127Z,8.62
2023-02-22T06:57:25.311Z,8.72
2023-02-22T06:59:53.260Z,8.79
2023-02-22T07:02:21.129Z,8.87
2023-02-22T07:04:49.142Z,8.93
2023-02-22T07:07:17.176Z,8.97
2023-02-22T07:09:47.598Z,9.02
2023-02-22T07:12:15.778Z,9.07
2023-02-22T07:14:43.623Z,9.14
2023-02-22T07:17:11.731Z,9.18
2023-02-22T07:19:39.796Z,9.25
2023-02-22T07:22:07.757Z,9.31
2023-02-22T07:24:35.725Z,9.40
2023-02-22T07:27:04.045Z,9.43
2023-02-22T07:29:31.961Z,9.52
2023-02-22T07:32:00.095Z,9.63
2023-02-22T07:34:28.526Z,9.73
2023-02-22T07:36:56.533Z,9.76
2023-02-22T07:39:24.462Z,9.62
2023-02-22T07:41:53.051Z,9.49
2023-02-22T07:44:24.400Z,9.37
2023-02-22T07:46:52.307Z,9.06
2023-02-22T07:49:20.641Z,8.84
2023-02-22T07:51:48.553Z,8.74
2023-02-22T07:54:16.683Z,8.64
2023-02-22T07:56:48.343Z,8.63
2023-02-22T07:59:16.434Z,8.59
2023-02-22T08:01:44.690Z,8.62
2023-02-22T08:04:12.773Z,8.69
2023-02-22T08:06:40.944Z,8.77
2023-02-22T08:09:09.011Z,8.85
2023-02-22T08:11:36.980Z,8.87
2023-02-22T08:14:04.944Z,8.94
2023-02-22T08:16:32.917Z,8.95
2023-02-22T08:19:01.096Z,8.87
2023-02-22T08:21:30.500Z,8.78
2023-02-22T08:23:58.562Z,8.75
2023-02-22T08:26:26.741Z,8.68
2023-02-22T08:28:55.144Z,8.60
2023-02-22T08:31:23.061Z,8.57
2023-02-22T08:33:51.174Z,8.57
2023-02-22T08:36:19.127Z,8.58
2023-02-22T08:38:46.997Z,8.59
2023-02-22T08:41:15.065Z,8.59
2023-02-22T08:43:43.452Z,8.62
2023-02-22T08:46:11.434Z,8.67
2023-02-22T08:48:39.284Z,8.74
2023-02-22T08:51:07.162Z,8.83
2023-02-22T08:53:35.306Z,8.97
2023-02-22T08:56:03.393Z,9.10
2023-02-22T08:58:31.212Z,9.23
2023-02-22T09:00:59.119Z,9.33
2023-02-22T09:03:27.135Z,9.45
2023-02-22T09:05:55.512Z,9.57
2023-02-22T09:08:23.516Z,9.64
2023-02-22T09:10:51.819Z,9.68
2023-02-22T09:13:19.691Z,9.68
2023-02-22T09:15:47.550Z,9.71
2023-02-22T09:18:15.519Z,9.74
2023-02-22T09:20:43.607Z,9.79
2023-02-22T09:23:11.492Z,9.83
2023-02-22T09:25:40.971Z,9.87
2023-02-22T09:28:09.476Z,9.91
2023-02-22T09:30:37.685Z,9.95
2023-02-22T09:33:10.273Z,9.99
2023-02-22T09:35:47.957Z,10.04
2023-02-22T09:38:22.811Z,10.07
2023-02-22T09:40:52.082Z,10.15
2023-02-22T09:43:31.277Z,10.27
2023-02-22T09:46:21.167Z,10.40
2023-02-22T09:49:08.165Z,10.52
2023-02-22T09:51:42.580Z,10.50
2023-02-22T09:54:14.676Z,10.35
2023-02-22T09:56:44.258Z,10.23
2023-02-22T09:59:15.912Z,10.28
2023-02-22T10:01:46.744Z,10.31
2023-02-22T10:04:18.813Z,10.25
2023-02-22T10:06:59.377Z,10.21
2023-02-22T10:09:27.865Z,10.16
2023-02-22T10:12:00.204Z,10.38
2023-02-22T10:14:37.318Z,10.52
2023-02-22T10:17:17.680Z,10.42
2023-02-22T10:19:45.640Z,10.41
2023-02-22T10:22:21.320Z,10.42
2023-02-22T10:25:04.992Z,10.39
2023-02-22T10:27:33.211Z,10.38
2023-02-22T10:30:23.274Z,10.46
2023-02-22T10:33:26.751Z,10.40
2023-02-22T10:35:55.398Z,10.33
2023-02-22T10:38:24.793Z,10.29
2023-02-22T10:40:55.739Z,10.34
2023-02-22T10:43:24.317Z,10.45
2023-02-22T10:45:56.170Z,10.66
2023-02-22T10:48:26.096Z,10.78
2023-02-22T10:50:57.541Z,10.87
2023-02-22T10:53:27.148Z,10.90
2023-02-22T10:56:10.126Z,10.82
2023-02-22T10:58:41.004Z,10.69
2023-02-22T11:01:38.434Z,10.62
2023-02-22T11:04:12.492Z,10.53
2023-02-22T11:06:41.882Z,10.45
2023-02-22T11:09:12.944Z,10.44
2023-02-22T11:11:47.747Z,10.48
2023-02-22T11:14:29.650Z,10.63
2023-02-22T11:16:58.647Z,10.83
2023-02-22T11:19:31.430Z,10.97
2023-02-22T11:22:22.457Z,11.09
2023-02-22T11:27:50.367Z,11.28
2023-02-22T11:30:22.040Z,11.34
2023-02-22T11:33:12.837Z,11.39
2023-02-22T11:35:57.153Z,11.54
2023-02-22T11:38:25.228Z,11.71
2023-02-22T11:41:11.203Z,12.02
2023-02-22T11:43:39.058Z,12.33
2023-02-22T11:46:10.025Z,12.52
2023-02-22T11:48:40.218Z,12.77
2023-02-22T11:51:14.441Z,13.21
2023-02-22T11:53:44.458Z,13.41
2023-02-22T11:56:12.324Z,14.02
2023-02-22T11:58:46.024Z,15.12
2023-02-22T12:01:19.855Z,16.21
2023-02-22T12:04:06.694Z,17.40
2023-02-22T12:06:40.657Z,18.49
2023-02-22T12:09:27.476Z,19.34
2023-02-22T12:12:04.547Z,20.25
2023-02-22T12:14:53.757Z,20.71
2023-02-22T12:17:43.619Z,20.96
2023-02-22T12:20:25.593Z,21.22
2023-02-22T12:22:57.761Z,20.87
2023-02-22T12:25:29.618Z,21.19
2023-02-22T12:28:00.518Z,21.67
2023-02-22T12:30:34.395Z,21.83
2023-02-22T12:33:06.464Z,21.57
2023-02-22T12:35:36.663Z,22.20
2023-02-22T12:38:17.023Z,22.40
2023-02-22T12:40:45.319Z,23.08
2023-02-22T12:43:18.492Z,23.70
2023-02-22T12:46:01.813Z,23.98
2023-02-22T12:48:30.412Z,23.83
2023-02-22T12:51:02.365Z,24.54
2023-02-22T12:53:38.434Z,24.44
2023-02-22T12:56:25.357Z,22.93
2023-02-22T12:59:03.084Z,21.58
2023-02-22T13:01:43.233Z,20.19
2023-02-22T13:04:20.488Z,18.72
2023-02-22T13:06:55.212Z,18.20
2023-02-22T13:09:28.929Z,18.77
2023-02-22T13:12:26.269Z,19.04
2023-02-22T13:15:00.145Z,19.75
2023-02-22T13:17:31.219Z,20.31
2023-02-22T13:20:06.350Z,20.52
2023-02-22T13:23:01.886Z,20.51
2023-02-22T13:25:52.459Z,20.81
2023-02-22T13:28:39.289Z,20.64
2023-02-22T13:31:25.820Z,20.13
2023-02-22T13:34:03.689Z,19.47
2023-02-22T13:36:34.733Z,20.04
2023-02-22T13:39:02.898Z,20.56
2023-02-22T13:41:33.941Z,21.16
2023-02-22T13:44:17.066Z,21.40
2023-02-22T13:47:00.856Z,22.02
2023-02-22T13:49:37.994Z,22.89
2023-02-22T13:52:12.413Z,23.69
2023-02-22T13:54:46.762Z,24.30
2023-02-22T13:57:19.717Z,24.45
2023-02-22T13:59:48.519Z,24.23
2023-02-22T14:02:36.852Z,24.50
2023-02-22T14:05:25.335Z,24.64
2023-02-22T14:07:53.260Z,24.62
2023-02-22T14:10:56.484Z,24.96
2023-02-22T14:13:29.292Z,24.93
2023-02-22T14:16:00.284Z,24.46
2023-02-22T14:18:31.642Z,24.46
2023-02-22T14:21:06.697Z,23.99
2023-02-22T14:23:40.461Z,23.99
2023-02-22T14:26:21.739Z,24.12
2023-02-22T14:28:55.877Z,23.96
2023-02-22T14:31:35.923Z,23.07
2023-02-22T14:34:09.421Z,22.00
2023-02-22T14:36:43.234Z,21.19
2023-02-22T14:39:17.986Z,20.42
2023-02-22T14:41:50.334Z,19.65
2023-02-22T14:44:21.779Z,19.05
2023-02-22T14:46:52.102Z,18.43
2023-02-22T14:49:23.040Z,17.92
2023-02-22T14:51:54.100Z,17.48
2023-02-22T14:54:34.351Z,17.13
2023-02-22T14:57:24.570Z,16.79
2023-02-22T14:59:59.139Z,16.41
2023-02-22T15:02:27.176Z,16.13
2023-02-22T15:04:56.546Z,15.90
2023-02-22T15:07:29.929Z,15.66
2023-02-22T15:10:17.725Z,15.37
2023-02-22T15:13:12.673Z,15.13
2023-02-22T15:15:49.303Z,14.87
2023-02-22T15:18:19.870Z,14.67
2023-02-22T15:20:56.206Z,14.53
2023-02-22T15:23:33.522Z,14.41
2023-02-22T15:26:02.089Z,14.27
2023-02-22T15:28:31.282Z,14.13
2023-02-22T15:31:21.768Z,13.99
2023-02-22T15:33:53.125Z,13.86
2023-02-22T15:36:22.882Z,13.69
2023-02-22T15:38:52.064Z,13.52
2023-02-22T15:41:22.280Z,13.37
2023-02-22T15:44:17.557Z,13.17
2023-02-22T15:46:50.908Z,13.00
2023-02-22T15:49:20.809Z,12.88
2023-02-22T15:51:51.950Z,12.80
2023-02-22T15:54:27.455Z,12.73
2023-02-22T15:56:56.716Z,12.61
2023-02-22T15:59:29.784Z,12.51
2023-02-22T16:01:58.809Z,12.43
2023-02-22T16:04:29.539Z,12.34
2023-02-22T16:07:07.328Z,12.22
2023-02-22T16:09:35.383Z,12.11
2023-02-22T16:12:11.056Z,12.02
2023-02-22T16:14:38.904Z,11.91
2023-02-22T16:17:29.052Z,11.80
2023-02-22T16:19:58.972Z,11.73
2023-02-22T16:22:37.222Z,11.65
2023-02-22T16:25:18.714Z,11.59
2023-02-22T16:28:06.840Z,11.52
2023-02-22T16:30:36.444Z,11.42
2023-02-22T16:33:05.846Z,11.33
2023-02-22T16:35:35.697Z,11.25
2023-02-22T16:38:05.064Z,11.17
2023-02-22T16:40:34.691Z,11.12
2023-02-22T16:43:03.942Z,11.07
2023-02-22T16:45:31.952Z,10.98
2023-02-22T16:48:00.937Z,10.93
2023-02-22T16:50:28.726Z,10.86
2023-02-22T16:52:58.711Z,10.81
2023-02-22T16:55:26.992Z,10.77
2023-02-22T16:58:01.090Z,10.75
2023-02-22T17:00:31.973Z,10.71
2023-02-22T17:03:04.719Z,10.67
2023-02-22T17:05:36.407Z,10.58
2023-02-22T17:08:05.175Z,10.52
2023-02-22T17:10:34.264Z,10.48
2023-02-22T17:13:16.382Z,10.39
2023-02-22T17:15:49.883Z,10.30
2023-02-22T17:18:23.022Z,10.21
2023-02-22T17:20:52.252Z,10.11
2023-02-22T17:23:21.452Z,10.00
2023-02-22T17:25:53.607Z,9.90
2023-02-22T17:28:22.202Z,9.80
2023-02-22T17:30:51.640Z,9.72
2023-02-22T17:33:21.526Z,9.65
2023-02-22T17:35:49.402Z,9.59
2023-02-22T17:38:20.124Z,9.53
2023-02-22T17:40:55.028Z,9.48
2023-02-22T17:43:23.676Z,9.46
2023-02-22T17:45:51.843Z,9.47
2023-02-22T17:48:20.793Z,9.46
2023-02-22T17:50:49.805Z,9.47
2023-02-22T17:53:21.895Z,9.48
2023-02-22T17:55:50.310Z,9.49
2023-02-22T17:58:18.836Z,9.49
2023-02-22T18:00:47.837Z,9.51
2023-02-22T18:03:17.653Z,9.51
2023-02-22T18:05:47.759Z,9.51
2023-02-22T18:08:15.810Z,9.51
2023-02-22T18:10:44.439Z,9.50
2023-02-22T18:13:13.738Z,9.46
2023-02-22T18:15:41.651Z,9.44
2023-02-22T18:18:09.548Z,9.43
2023-02-22T18:20:40.588Z,9.41
2023-02-22T18:23:10.710Z,9.39
2023-02-22T18:25:40.322Z,9.35
2023-02-22T18:28:08.394Z,9.30
2023-02-22T18:30:38.136Z,9.20
2023-02-22T18:33:07.010Z,9.14
2023-02-22T18:35:34.956Z,9.06
2023-02-22T18:38:03.263Z,8.99
2023-02-22T18:40:31.208Z,8.94
2023-02-22T18:42:59.035Z,8.91
2023-02-22T18:45:27.993Z,8.87
2023-02-22T18:47:56.261Z,8.83
2023-02-22T18:50:24.213Z,8.82
2023-02-22T18:52:52.085Z,8.80
2023-02-22T18:55:21.319Z,8.74
2023-02-22T18:57:51.005Z,8.67
2023-02-22T19:00:25.230Z,8.60
2023-02-22T19:02:53.834Z,8.55
2023-02-22T19:05:22.783Z,8.50
2023-02-22T19:07:50.863Z,8.47
2023-02-22T19:10:22.518Z,8.45
2023-02-22T19:12:50.482Z,8.44
2023-02-22T19:15:18.653Z,8.41
2023-02-22T19:17:46.884Z,8.39
2023-02-22T19:20:14.793Z,8.34
2023-02-22T19:22:42.751Z,8.32
2023-02-22T19:25:10.648Z,8.31
2023-02-22T19:27:38.832Z,8.27
2023-02-22T19:30:07.139Z,8.21
2023-02-22T19:32:36.686Z,8.16
2023-02-22T19:35:06.917Z,8.11
2023-02-22T19:37:36.620Z,8.05
2023-02-22T19:40:08.936Z,7.97
2023-02-22T19:42:36.972Z,7.88
2023-02-22T19:45:05.170Z,7.81
2023-02-22T19:47:33.311Z,7.72
2023-02-22T19:50:01.796Z,7.61
2023-02-22T19:52:29.771Z,7.51
2023-02-22T19:54:57.741Z,7.42
2023-02-22T19:57:27.356Z,7.33
2023-02-22T19:59:56.130Z,7.22
2023-02-22T20:02:27.621Z,7.13
2023-02-22T20:04:55.758Z,7.06
2023-02-22T20:07:23.726Z,7.01
2023-02-22T20:09:51.798Z,6.97
2023-02-22T20:12:19.577Z,6.96
2023-02-22T20:14:47.522Z,6.93
2023-02-22T20:17:15.505Z,6.90
2023-02-22T20:19:43.334Z,6.85
2023-02-22T20:22:11.779Z,6.80
2023-02-22T20:24:40.947Z,6.75
2023-02-22T20:27:09.326Z,6.69
2023-02-22T20:29:37.387Z,6.62
2023-02-22T20:32:06.361Z,6.54
2023-02-22T20:34:36.422Z,6.45
2023-02-22T20:37:05.010Z,6.38
2023-02-22T20:39:33.156Z,6.33
2023-02-22T20:42:02.872Z,6.28
2023-02-22T20:44:30.840Z,6.26
2023-02-22T20:46:58.824Z,6.22
2023-02-22T20:49:27.612Z,6.17
2023-02-22T20:51:55.679Z,6.09
2023-02-22T20:54:24.110Z,6.01
2023-02-22T20:56:53.125Z,5.96
2023-02-22T20:59:21.750Z,5.92
2023-02-22T21:01:50.367Z,5.89
2023-02-22T21:04:18.967Z,5.84
2023-02-22T21:06:46.961Z,5.82
2023-02-22T21:09:18.118Z,5.78
2023-02-22T21:11:46.821Z,5.71
2023-02-22T21:14:18.895Z,5.65
2023-02-22T21:16:48.208Z,5.56
2023-02-22T21:19:27.920Z,5.46
2023-02-22T21:21:58.064Z,5.34
2023-02-22T21:24:27.142Z,5.28
2023-02-22T21:26:58.784Z,5.26
2023-02-22T21:29:27.783Z,5.25
2023-02-22T21:31:56.020Z,5.25
2023-02-22T21:34:25.997Z,5.24
2023-02-22T21:36:54.025Z,5.23
2023-02-22T21:39:22.831Z,5.23
2023-02-22T21:41:52.016Z,5.22
2023-02-22T21:44:20.534Z,5.20
2023-02-22T21:46:49.898Z,5.17
2023-02-22T21:49:18.504Z,5.14
2023-02-22T21:51:46.475Z,5.11
2023-02-22T21:54:14.559Z,5.07
2023-02-22T21:56:43.642Z,5.05
2023-02-22T21:59:13.861Z,5.02
2023-02-22T22:01:47.127Z,5.00
2023-02-22T22:04:19.734Z,4.96
2023-02-22T22:06:49.237Z,4.91
2023-02-22T22:09:20.505Z,4.83
2023-02-22T22:11:52.239Z,4.81
2023-02-22T22:14:21.844Z,4.79
2023-02-22T22:16:52.691Z,4.76
2023-02-22T22:19:20.650Z,4.71
2023-02-22T22:21:50.360Z,4.69
2023-02-22T22:24:20.903Z,4.70
2023-02-22T22:26:51.277Z,4.71
2023-02-22T22:29:19.281Z,4.71
2023-02-22T22:31:47.345Z,4.72
2023-02-22T22:34:15.728Z,4.73
2023-02-22T22:36:43.699Z,4.73
2023-02-22T22:39:14.545Z,4.70
2023-02-22T22:41:44.266Z,4.68
2023-02-22T22:44:15.434Z,4.64
2023-02-22T22:46:49.136Z,4.59
2023-02-22T22:49:17.185Z,4.55
2023-02-22T22:51:47.594Z,4.53
2023-02-22T22:54:15.466Z,4.51
2023-02-22T22:56:43.433Z,4.48
2023-02-22T22:59:13.275Z,4.47
2023-02-22T23:01:44.752Z,4.45
2023-02-22T23:04:16.468Z,4.45
2023-02-22T23:06:46.060Z,4.46
2023-02-22T23:09:13.920Z,4.49
2023-02-22T23:11:45.997Z,4.51
2023-02-22T23:14:16.112Z,4.54
2023-02-22T23:16:45.545Z,4.56
2023-02-22T23:19:15.722Z,4.58
2023-02-22T23:21:44.227Z,4.57
2023-02-22T23:24:15.887Z,4.57
2023-02-22T23:26:51.012Z,4.56
2023-02-22T23:29:20.013Z,4.52
2023-02-22T23:31:48.934Z,4.49
2023-02-22T23:34:17.490Z,4.45
2023-02-22T23:36:45.345Z,4.41
2023-02-22T23:39:14.894Z,4.34
2023-02-22T23:41:42.942Z,4.31
2023-02-22T23:44:14.084Z,4.29
2023-02-22T23:46:42.771Z,4.29
2023-02-22T23:49:10.725Z,4.29
2023-02-22T23:51:44.685Z,4.30
2023-02-22T23:54:14.355Z,4.29
2023-02-22T23:56:53.925Z,4.28
2023-02-22T23:59:23.805Z,4.26
